Time;durP1;ratioP1;P1;durP2;ratioP2;P2;SDS_P1;SDS_P2;PMS_P1;PMS_P2;Temp;Humidity;BMP_temperature;BMP_pressure;BME280_temperature;BME280_humidity;BME280_pressure;Samples;Min_cycle;Max_cycle;Signal;HPM_P1;HPM_P2
2022/06/27 00:01:58;;;;;;;9.23;8.73;;;;;;;17.20;89.05;93099.50;5001061;28;20229;-69
2022/06/27 00:04:23;;;;;;;9.33;8.67;;;;;;;17.17;88.40;93088.78;5004304;28;20205;-69
2022/06/27 00:06:49;;;;;;;10.60;9.80;;;;;;;16.97;89.75;93092.75;5002665;28;20239;-70
2022/06/27 00:09:14;;;;;;;9.60;8.83;;;;;;;17.05;90.50;93099.94;5001066;28;20201;-70
2022/06/27 00:11:40;;;;;;;10.20;9.60;;;;;;;17.07;90.02;93094.34;5001899;28;20233;-71
2022/06/27 00:14:05;;;;;;;10.77;10.07;;;;;;;17.03;89.96;93096.03;5001145;28;20196;-69
2022/06/27 00:16:30;;;;;;;9.73;9.23;;;;;;;16.91;90.84;93093.97;5003888;28;20283;-69
2022/06/27 00:18:56;;;;;;;10.37;9.67;;;;;;;16.95;90.54;93089.63;5002502;28;20192;-70
2022/06/27 00:21:21;;;;;;;10.57;9.83;;;;;;;16.93;90.63;93086.56;5000560;28;20227;-69
2022/06/27 00:23:47;;;;;;;10.23;9.53;;;;;;;17.00;90.50;93100.06;5004413;28;20184;-71
2022/06/27 00:26:12;;;;;;;10.00;9.27;;;;;;;16.92;90.80;93098.16;5003447;28;20220;-70
2022/06/27 00:28:37;;;;;;;11.13;10.37;;;;;;;16.85;91.17;93089.16;5002642;28;20260;-69
2022/06/27 00:31:03;;;;;;;11.27;10.33;;;;;;;16.70;92.02;93087.69;5000023;28;20287;-70
2022/06/27 00:33:28;;;;;;;11.20;10.47;;;;;;;16.65;93.48;93095.75;5003634;28;20183;-69
2022/06/27 00:35:54;;;;;;;10.37;9.37;;;;;;;16.63;93.68;93090.00;5003445;28;20236;-69
2022/06/27 00:38:19;;;;;;;11.40;10.47;;;;;;;16.62;94.02;93093.72;5001726;28;20196;-69
2022/06/27 00:40:45;;;;;;;11.37;10.33;;;;;;;16.65;94.36;93090.47;5002163;28;20235;-69
2022/06/27 00:43:11;;;;;;;10.77;10.10;;;;;;;16.70;94.22;93097.47;5005606;28;20199;-70
2022/06/27 00:45:36;;;;;;;11.37;10.57;;;;;;;16.69;93.92;93091.41;5004580;28;20226;-69
2022/06/27 00:48:02;;;;;;;11.63;10.73;;;;;;;16.62;94.19;93079.75;5005495;28;20861;-69
2022/06/27 00:50:27;;;;;;;11.23;10.47;;;;;;;16.69;93.09;93086.13;5004047;28;20195;-70
2022/06/27 00:52:53;;;;;;;11.00;10.17;;;;;;;16.60;93.71;93093.22;5001869;28;20262;-70
2022/06/27 00:55:18;;;;;;;10.00;9.50;;;;;;;16.47;93.89;93094.09;5005007;28;20195;-72
2022/06/27 00:57:44;;;;;;;10.93;10.13;;;;;;;16.46;94.38;93095.16;5000668;28;20219;-70
2022/06/27 01:00:11;;;;;;;11.80;10.67;;;;;;;16.43;94.68;93090.47;5000452;28;20211;-69
2022/06/27 01:02:36;;;;;;;11.37;10.47;;;;;;;16.29;95.10;93081.88;4999663;28;20231;-69
2022/06/27 01:05:03;;;;;;;12.13;11.10;;;;;;;16.47;95.02;93088.81;5002975;28;20248;-69
2022/06/27 01:07:28;;;;;;;11.83;10.93;;;;;;;16.53;94.76;93082.31;5001533;28;20231;-70
2022/06/27 01:09:57;;;;;;;12.40;11.33;;;;;;;16.45;94.97;93064.59;5005682;28;20189;-71
2022/06/27 01:12:23;;;;;;;12.47;11.40;;;;;;;16.40;95.53;93064.72;5005488;28;20231;-71
2022/06/27 01:14:49;;;;;;;12.17;11.27;;;;;;;16.26;96.61;93066.66;5003028;28;21216;-70
2022/06/27 01:17:15;;;;;;;12.57;11.57;;;;;;;16.25;97.04;93080.16;5002030;28;20211;-71
2022/06/27 01:19:42;;;;;;;11.53;10.83;;;;;;;16.11;96.44;93043.31;5002685;28;20218;-71
2022/06/27 01:22:08;;;;;;;11.73;10.87;;;;;;;16.29;95.41;93065.28;5004573;28;20262;-71
2022/06/27 01:24:34;;;;;;;12.33;11.40;;;;;;;16.26;95.76;93066.66;5005319;28;20192;-71
2022/06/27 01:27:00;;;;;;;11.60;10.80;;;;;;;16.23;95.74;93062.00;5002066;28;20227;-71
2022/06/27 01:29:26;;;;;;;13.63;12.33;;;;;;;16.31;96.06;93065.75;5000054;28;20194;-72
2022/06/27 01:31:51;;;;;;;12.93;12.03;;;;;;;16.32;96.17;93070.72;4998436;28;20224;-71
2022/06/27 01:34:17;;;;;;;11.63;10.73;;;;;;;16.21;96.24;93066.78;5002354;28;20186;-70
2022/06/27 01:36:43;;;;;;;12.10;11.27;;;;;;;15.98;97.35;93059.97;5002218;28;20223;-71
2022/06/27 01:39:20;;;;;;;11.20;10.40;;;;;;;16.11;96.81;93082.81;5003220;28;20208;-71
2022/06/27 01:41:51;;;;;;;12.50;11.43;;;;;;;16.05;95.75;93060.31;4999773;28;20253;-70
2022/06/27 01:44:18;;;;;;;11.50;10.60;;;;;;;16.02;96.31;93080.16;5000926;28;20188;-70
2022/06/27 01:46:53;;;;;;;11.90;11.20;;;;;;;15.99;96.76;93083.38;4999247;28;20243;-70
2022/06/27 01:49:19;;;;;;;12.03;10.97;;;;;;;16.02;96.81;93092.53;5003675;28;20249;-70
2022/06/27 01:51:47;;;;;;;12.23;11.53;;;;;;;15.88;97.53;93097.06;5002419;28;20236;-70
2022/06/27 01:54:15;;;;;;;11.40;10.67;;;;;;;15.89;97.15;93109.94;5001289;28;20275;-73
2022/06/27 01:56:42;;;;;;;11.20;10.53;;;;;;;15.86;97.70;93104.50;5000285;28;20255;-71
2022/06/27 01:59:08;;;;;;;12.20;11.30;;;;;;;15.85;97.98;93106.38;5002215;28;20219;-70
2022/06/27 02:01:35;;;;;;;11.50;10.67;;;;;;;16.00;97.44;93110.47;5000165;28;20224;-71
2022/06/27 02:04:00;;;;;;;13.17;12.17;;;;;;;16.13;97.22;93112.28;4999493;28;20195;-71
2022/06/27 02:06:30;;;;;;;12.97;11.97;;;;;;;16.26;97.07;93103.56;4999699;28;20245;-71
2022/06/27 02:08:57;;;;;;;13.87;12.73;;;;;;;16.32;97.98;93115.53;4999916;28;20191;-71
2022/06/27 02:11:24;;;;;;;13.23;12.17;;;;;;;16.24;98.59;93104.91;5000794;28;20258;-70
2022/06/27 02:13:50;;;;;;;14.07;13.00;;;;;;;16.13;99.64;93103.59;5004043;28;20196;-72
2022/06/27 02:16:18;;;;;;;14.07;12.87;;;;;;;16.19;100.00;93113.72;4987714;28;20291;-71
2022/06/27 02:18:45;;;;;;;12.40;11.40;;;;;;;16.30;98.14;93114.25;5006271;28;20198;-71
2022/06/27 02:21:12;;;;;;;13.40;12.20;;;;;;;16.11;99.22;93106.53;5002731;28;20278;-71
2022/06/27 02:23:39;;;;;;;12.57;11.47;;;;;;;16.09;99.51;93113.97;5003635;28;20195;-70
2022/06/27 02:26:07;;;;;;;14.47;13.27;;;;;;;16.05;99.93;93107.72;5004101;28;20226;-70
2022/06/27 02:28:33;;;;;;;12.27;11.30;;;;;;;16.17;99.33;93115.91;5003315;28;20179;-70
2022/06/27 02:30:59;;;;;;;13.03;12.03;;;;;;;16.09;99.44;93114.72;4987427;28;20250;-71
2022/06/27 02:33:38;;;;;;;13.63;12.63;;;;;;;16.07;99.39;93113.50;5006344;28;20204;-71
2022/06/27 02:36:07;;;;;;;13.03;11.83;;;;;;;16.02;99.00;93118.88;5005770;28;20231;-71
2022/06/27 02:38:33;;;;;;;12.57;11.60;;;;;;;15.87;99.71;93119.22;5005661;28;20180;-70
2022/06/27 02:41:03;;;;;;;13.37;12.27;;;;;;;15.80;100.00;93122.25;5007383;28;20234;-72
2022/06/27 02:43:29;;;;;;;13.97;12.87;;;;;;;16.04;98.96;93122.78;5002728;28;20200;-71
2022/06/27 02:45:56;;;;;;;13.00;12.00;;;;;;;16.08;97.95;93121.09;5006202;28;20225;-72
2022/06/27 02:48:26;;;;;;;13.43;12.27;;;;;;;16.03;97.67;93125.72;5006042;28;20179;-72
2022/06/27 02:50:56;;;;;;;13.63;12.40;;;;;;;15.80;99.01;93132.00;5003869;28;20272;-71
2022/06/27 02:53:26;;;;;;;12.07;11.27;;;;;;;15.74;97.93;93112.94;5005131;28;20195;-71
2022/06/27 02:55:55;;;;;;;12.30;11.40;;;;;;;15.85;97.75;93118.75;5004421;28;20253;-71
2022/06/27 02:58:26;;;;;;;10.90;10.20;;;;;;;15.96;97.73;93133.25;5003540;28;20210;-70
2022/06/27 03:00:55;;;;;;;10.60;9.83;;;;;;;15.99;96.81;93132.63;5003065;28;20268;-70
2022/06/27 03:03:24;;;;;;;11.23;10.37;;;;;;;16.05;96.07;93139.34;5004305;28;20215;-71
2022/06/27 03:05:55;;;;;;;10.47;9.77;;;;;;;16.17;95.70;93142.25;5001594;28;20311;-71
2022/06/27 03:08:20;;;;;;;11.67;10.87;;;;;;;16.27;94.32;93128.81;5006194;28;20223;-70
2022/06/27 03:10:46;;;;;;;11.60;10.90;;;;;;;16.58;92.98;93140.19;5002849;28;20236;-72
2022/06/27 03:13:13;;;;;;;10.63;10.03;;;;;;;16.87;90.56;93131.81;5001510;28;20210;-71
2022/06/27 03:15:38;;;;;;;10.77;10.17;;;;;;;17.48;87.41;93134.38;5003763;28;20238;-70
2022/06/27 03:18:04;;;;;;;11.13;10.43;;;;;;;18.59;82.02;93147.66;5005003;28;20212;-71
2022/06/27 03:20:29;;;;;;;9.80;9.17;;;;;;;19.44;76.36;93128.09;5004331;28;20245;-71
2022/06/27 03:22:54;;;;;;;10.43;9.90;;;;;;;20.32;72.23;93135.59;5003384;28;20184;-71
2022/06/27 03:25:20;;;;;;;10.50;9.90;;;;;;;20.25;72.07;93124.72;5004598;28;20201;-72
2022/06/27 03:27:45;;;;;;;10.40;9.80;;;;;;;20.14;73.17;93144.78;5003351;28;20185;-71
2022/06/27 03:30:11;;;;;;;9.83;9.33;;;;;;;20.04;73.68;93141.72;5003262;28;20169;-71
2022/06/27 03:32:36;;;;;;;9.63;9.03;;;;;;;20.10;73.85;93146.50;5004860;28;20300;-71
2022/06/27 03:35:02;;;;;;;9.27;8.77;;;;;;;20.00;74.58;93149.53;5005286;28;20229;-71
2022/06/27 03:37:27;;;;;;;10.23;9.50;;;;;;;20.47;73.83;93142.16;5003018;28;20242;-71
2022/06/27 03:39:53;;;;;;;10.20;9.60;;;;;;;21.27;69.57;93146.06;5001692;28;20293;-72
2022/06/27 03:42:18;;;;;;;9.50;9.00;;;;;;;21.24;69.65;93150.16;5002469;28;20705;-71
2022/06/27 03:44:44;;;;;;;10.15;9.60;;;;;;;21.66;67.14;93145.41;5002621;28;20226;-71
2022/06/27 03:47:10;;;;;;;10.00;9.40;;;;;;;21.43;68.25;93152.28;5005958;28;20261;-71
2022/06/27 03:52:19;;;;;;;12.07;11.15;;;;;;;21.54;70.15;93151.47;5006604;28;20229;-72
2022/06/27 03:54:44;;;;;;;12.13;10.75;;;;;;;21.78;69.29;93150.72;5003672;28;20195;-72
2022/06/27 03:57:10;;;;;;;11.48;10.50;;;;;;;22.05;68.14;93142.81;5003161;28;20255;-71
2022/06/27 03:59:35;;;;;;;10.80;10.07;;;;;;;21.96;69.06;93154.72;5004460;28;20233;-71
2022/06/27 04:02:01;;;;;;;10.82;10.02;;;;;;;22.69;66.06;93145.44;4999881;28;20221;-73
2022/06/27 04:04:26;;;;;;;11.00;10.30;;;;;;;22.43;66.19;93157.59;5006824;28;20305;-73
2022/06/27 04:06:52;;;;;;;11.43;10.65;;;;;;;21.29;70.43;93149.16;5004749;28;20232;-72
2022/06/27 04:09:17;;;;;;;10.13;9.40;;;;;;;21.08;71.84;93159.06;5002891;28;20198;-71
2022/06/27 04:11:42;;;;;;;13.60;10.63;;;;;;;21.26;71.09;93121.38;5004397;28;20242;-69
2022/06/27 04:14:08;;;;;;;10.85;9.95;;;;;;;21.60;69.68;93160.03;5004887;28;20191;-69
2022/06/27 04:16:33;;;;;;;12.32;11.32;;;;;;;21.24;71.21;93160.00;5002906;28;20855;-71
2022/06/27 04:18:58;;;;;;;11.35;10.57;;;;;;;21.02;72.38;93163.06;5002951;28;20222;-70
2022/06/27 04:21:25;;;;;;;11.77;10.77;;;;;;;21.20;71.49;93159.88;5000254;28;20266;-68
2022/06/27 04:23:50;;;;;;;10.73;9.77;;;;;;;21.49;70.37;93156.25;5004090;28;20191;-66
2022/06/27 04:26:16;;;;;;;12.05;10.95;;;;;;;21.25;71.52;93153.56;5001705;28;20251;-68
2022/06/27 04:28:42;;;;;;;11.88;11.00;;;;;;;20.85;72.74;93152.59;5004948;28;20210;-69
2022/06/27 04:31:10;;;;;;;10.70;9.77;;;;;;;21.52;71.12;93160.91;4998259;28;20262;-69
2022/06/27 04:33:35;;;;;;;10.48;9.70;;;;;;;21.61;71.11;93156.25;5000803;28;20266;-70
2022/06/27 04:36:01;;;;;;;10.25;9.65;;;;;;;22.65;67.02;93157.88;5001541;28;20229;-69
2022/06/27 04:38:26;;;;;;;10.45;9.50;;;;;;;23.27;64.37;93159.91;5004284;28;20263;-68
2022/06/27 04:40:52;;;;;;;11.30;10.27;;;;;;;22.23;66.94;93153.97;5002268;28;20263;-69
2022/06/27 04:43:17;;;;;;;10.70;9.80;;;;;;;22.80;66.00;93146.47;5000553;28;20199;-70
2022/06/27 04:45:43;;;;;;;10.55;9.85;;;;;;;22.95;65.61;93153.72;5003012;28;20228;-68
2022/06/27 04:48:09;;;;;;;9.88;9.05;;;;;;;23.21;65.48;93159.34;5001668;28;20189;-69
2022/06/27 04:50:36;;;;;;;15.15;10.05;;;;;;;22.64;66.64;93158.97;5003115;28;20185;-67
2022/06/27 04:53:03;;;;;;;12.15;11.15;;;;;;;21.38;71.12;93134.66;5004575;28;20194;-68
2022/06/27 04:55:30;;;;;;;12.73;11.75;;;;;;;21.35;71.73;93150.50;5002366;28;20193;-71
2022/06/27 04:57:55;;;;;;;14.40;13.00;;;;;;;21.61;71.45;93159.69;4997971;28;20255;-69
2022/06/27 05:00:21;;;;;;;13.00;12.00;;;;;;;21.42;72.37;93159.47;5003501;28;20212;-70
2022/06/27 05:02:46;;;;;;;13.10;11.93;;;;;;;20.95;74.26;93152.94;5001561;28;20195;-70
2022/06/27 05:05:12;;;;;;;12.00;11.10;;;;;;;21.64;72.68;93159.03;5002215;28;20187;-70
2022/06/27 05:07:38;;;;;;;12.30;11.40;;;;;;;23.78;64.63;93175.63;5003010;28;20248;-70
2022/06/27 05:10:04;;;;;;;12.32;11.23;;;;;;;23.15;64.81;93162.59;5001941;28;20190;-71
2022/06/27 05:12:30;;;;;;;12.98;11.77;;;;;;;23.08;64.40;93181.84;5002723;28;20228;-73
2022/06/27 05:14:55;;;;;;;13.20;11.90;;;;;;;24.39;60.90;93183.13;5002418;28;20189;-71
2022/06/27 05:17:22;;;;;;;13.50;12.30;;;;;;;28.20;50.08;93194.41;5001125;28;20218;-69
2022/06/27 05:19:47;;;;;;;12.50;11.30;;;;;;;29.82;44.37;93185.13;4999272;28;20220;-69
2022/06/27 05:22:13;;;;;;;12.23;11.07;;;;;;;31.55;39.78;93204.38;5000153;28;20230;-69
2022/06/27 05:24:39;;;;;;;11.15;10.13;;;;;;;31.11;40.07;93207.66;5001151;28;20183;-69
2022/06/27 05:27:05;;;;;;;13.98;11.30;;;;;;;29.18;43.84;93208.41;4998771;28;20246;-70
2022/06/27 05:29:30;;;;;;;12.13;10.95;;;;;;;25.97;53.40;93189.50;5001246;28;20200;-69
2022/06/27 05:31:56;;;;;;;12.60;10.65;;;;;;;24.73;58.83;93171.63;4999559;28;20283;-70
2022/06/27 05:34:21;;;;;;;12.77;11.70;;;;;;;23.88;60.29;93170.91;4985485;28;20202;-70
2022/06/27 05:36:48;;;;;;;12.73;11.57;;;;;;;24.18;59.77;93177.31;4999923;28;20234;-69
2022/06/27 05:39:13;;;;;;;10.77;9.98;;;;;;;29.10;46.19;93196.09;5004908;28;20248;-68
2022/06/27 05:41:39;;;;;;;12.35;10.55;;;;;;;30.75;41.59;93200.81;5004126;28;20223;-68
2022/06/27 05:44:05;;;;;;;10.70;9.75;;;;;;;35.15;32.77;93220.09;5004249;28;20187;-67
2022/06/27 05:46:32;;;;;;;11.07;10.18;;;;;;;34.75;32.96;93221.22;5001847;28;20232;-67
2022/06/27 05:48:58;;;;;;;9.52;8.85;;;;;;;36.13;31.01;93225.41;5001588;28;20195;-70
2022/06/27 05:51:23;;;;;;;9.55;8.88;;;;;;;35.88;31.24;93225.22;5002428;28;20228;-70
2022/06/27 05:53:50;;;;;;;11.32;9.43;;;;;;;36.42;29.91;93222.81;5003457;28;20259;-70
2022/06/27 05:56:16;;;;;;;10.25;9.27;;;;;;;36.08;30.13;93227.88;5001998;28;20219;-69
2022/06/27 05:58:42;;;;;;;11.60;9.88;;;;;;;33.12;34.06;93213.13;5000799;28;20206;-70
2022/06/27 06:01:09;;;;;;;12.10;10.00;;;;;;;34.38;33.55;93231.53;5001267;28;20227;-70
2022/06/27 06:03:36;;;;;;;10.45;9.60;;;;;;;36.05;30.35;93236.88;5000608;28;20204;-71
2022/06/27 06:06:02;;;;;;;10.40;9.45;;;;;;;38.29;27.46;93244.50;5002525;28;20234;-71
2022/06/27 06:08:27;;;;;;;13.02;9.90;;;;;;;38.11;26.63;93240.75;5002299;28;20254;-70
2022/06/27 06:10:53;;;;;;;9.48;8.45;;;;;;;37.98;26.97;93242.75;5000157;28;20232;-70
2022/06/27 06:13:19;;;;;;;10.85;9.82;;;;;;;37.52;27.92;93233.16;5002624;28;20207;-71
2022/06/27 06:15:45;;;;;;;9.60;8.90;;;;;;;38.44;25.97;93239.34;5000259;28;20290;-71
2022/06/27 06:18:11;;;;;;;9.20;8.40;;;;;;;36.40;28.54;93236.06;5001031;28;20212;-70
2022/06/27 06:20:37;;;;;;;10.13;9.23;;;;;;;37.83;27.01;93234.22;4998407;28;20212;-70
2022/06/27 06:23:03;;;;;;;9.30;8.50;;;;;;;38.33;26.33;93242.44;5001633;28;20263;-69
2022/06/27 06:25:29;;;;;;;9.45;8.57;;;;;;;38.95;24.85;93248.22;5000525;28;20199;-71
2022/06/27 06:28:02;;;;;;;10.10;9.05;;;;;;;36.08;29.19;93234.06;4999681;28;20187;-70
2022/06/27 06:30:31;;;;;;;9.15;8.25;;;;;;;37.51;26.04;93228.91;4981734;28;20246;-71
2022/06/27 06:33:02;;;;;;;8.80;8.00;;;;;;;34.63;30.62;93240.81;4997674;28;20200;-70
2022/06/27 06:35:27;;;;;;;9.27;8.23;;;;;;;34.77;30.67;93227.00;5000744;28;20196;-71
2022/06/27 06:37:53;;;;;;;10.13;8.65;;;;;;;35.98;29.30;93226.94;5000763;28;20200;-70
2022/06/27 06:40:19;;;;;;;8.73;8.10;;;;;;;37.72;26.90;93241.94;5001221;28;20211;-73
2022/06/27 06:42:45;;;;;;;8.45;7.88;;;;;;;33.83;31.73;93223.81;5001109;28;20192;-72
2022/06/27 06:45:10;;;;;;;10.48;7.85;;;;;;;37.09;27.52;93246.41;5000405;28;20218;-72
2022/06/27 06:47:46;;;;;;;8.50;7.70;;;;;;;36.89;27.66;93253.94;4998118;28;20220;-70
2022/06/27 06:50:16;;;;;;;8.60;8.07;;;;;;;36.56;28.18;93247.75;4983198;28;20233;-71
2022/06/27 06:52:42;;;;;;;8.38;7.88;;;;;;;34.77;30.08;93243.28;4999129;28;20223;-70
2022/06/27 06:55:11;;;;;;;9.38;8.57;;;;;;;31.60;36.54;93241.78;4999074;28;20187;-70
2022/06/27 06:57:38;;;;;;;9.18;8.48;;;;;;;29.10;42.27;93217.63;5002576;28;20220;-72
2022/06/27 07:00:05;;;;;;;10.63;9.82;;;;;;;26.69;49.44;93207.03;5001190;28;20219;-70
2022/06/27 07:02:30;;;;;;;10.70;9.50;;;;;;;25.71;51.07;93229.63;5010106;28;20216;-69
2022/06/27 07:04:56;;;;;;;9.93;9.30;;;;;;;26.09;51.36;93216.09;5007372;28;20190;-70
2022/06/27 07:07:22;;;;;;;10.73;9.73;;;;;;;25.67;52.93;93215.38;5002081;28;20244;-70
2022/06/27 07:09:47;;;;;;;11.32;10.43;;;;;;;25.46;53.57;93223.06;5002269;28;20288;-70
2022/06/27 07:12:13;;;;;;;12.38;11.45;;;;;;;25.50;52.93;93231.91;5001343;28;20220;-68
2022/06/27 07:14:39;;;;;;;11.90;10.95;;;;;;;25.24;53.59;93223.78;5003075;28;20191;-71
2022/06/27 07:17:05;;;;;;;11.02;10.23;;;;;;;24.78;53.80;93224.78;5003040;28;20247;-70
2022/06/27 07:19:31;;;;;;;11.10;10.40;;;;;;;24.80;54.04;93233.19;5003511;28;20219;-71
2022/06/27 07:21:56;;;;;;;12.68;10.50;;;;;;;24.29;54.25;93205.00;5004679;28;20227;-69
2022/06/27 07:24:21;;;;;;;11.55;10.73;;;;;;;24.28;53.22;93214.91;5004530;28;20210;-69
2022/06/27 07:26:47;;;;;;;11.55;10.75;;;;;;;24.46;54.33;93236.66;5003849;28;20233;-71
2022/06/27 07:29:13;;;;;;;11.15;10.18;;;;;;;23.39;56.71;93237.88;5002465;28;20217;-71
2022/06/27 07:31:39;;;;;;;12.85;11.05;;;;;;;23.83;57.01;93238.59;5004255;28;20257;-70
2022/06/27 07:34:07;;;;;;;12.20;11.00;;;;;;;23.92;54.96;93185.88;5004825;28;20191;-70
2022/06/27 07:36:33;;;;;;;11.68;10.80;;;;;;;23.87;56.95;93222.69;5001784;28;20220;-72
2022/06/27 07:38:59;;;;;;;13.15;11.73;;;;;;;24.18;55.20;93231.47;5005615;28;20190;-72
2022/06/27 07:41:26;;;;;;;12.13;10.95;;;;;;;23.71;56.89;93222.69;5004485;28;20239;-71
2022/06/27 07:43:54;;;;;;;12.77;11.15;;;;;;;23.79;56.50;93221.75;5002183;28;20214;-72
2022/06/27 07:46:20;;;;;;;11.50;10.50;;;;;;;24.34;52.98;93228.75;5003507;28;20229;-70
2022/06/27 07:48:46;;;;;;;11.38;10.52;;;;;;;24.33;52.89;93224.56;5000843;28;20178;-71
2022/06/27 07:51:16;;;;;;;11.20;10.38;;;;;;;24.00;57.02;93224.16;5004376;28;20228;-70
2022/06/27 07:53:43;;;;;;;11.48;10.48;;;;;;;24.00;57.26;93224.16;5005005;28;20180;-72
2022/06/27 07:56:10;;;;;;;11.70;10.88;;;;;;;23.67;55.09;93230.59;5001926;28;20238;-72
2022/06/27 07:58:38;;;;;;;12.00;10.27;;;;;;;23.25;57.87;93229.50;5001538;28;20191;-72
2022/06/27 08:01:08;;;;;;;11.57;10.80;;;;;;;24.31;56.22;93226.78;5001684;28;20265;-72
2022/06/27 08:03:41;;;;;;;12.43;11.27;;;;;;;24.18;55.86;93187.97;5001308;28;20201;-72
2022/06/27 08:06:10;;;;;;;11.48;10.57;;;;;;;24.37;52.60;93231.50;5001704;28;20238;-72
2022/06/27 08:08:41;;;;;;;12.23;11.23;;;;;;;24.42;51.18;93211.78;5002232;28;20188;-71
2022/06/27 08:11:16;;;;;;;11.48;10.68;;;;;;;24.56;51.72;93230.78;5003376;28;20245;-71
2022/06/27 08:13:43;;;;;;;10.75;9.95;;;;;;;24.45;52.61;93221.75;4999863;28;20194;-71
2022/06/27 08:16:08;;;;;;;10.10;9.48;;;;;;;24.34;52.57;93207.41;5001478;28;20237;-71
2022/06/27 08:18:35;;;;;;;11.13;10.10;;;;;;;24.24;53.82;93211.38;5001432;28;20208;-70
2022/06/27 08:21:01;;;;;;;12.48;11.30;;;;;;;24.54;53.25;93222.31;5000889;28;20306;-70
2022/06/27 08:23:28;;;;;;;12.55;11.55;;;;;;;24.61;53.23;93233.16;5001930;28;20196;-72
2022/06/27 08:25:54;;;;;;;12.40;11.30;;;;;;;24.69;51.27;93224.19;5004075;28;20239;-71
2022/06/27 08:28:22;;;;;;;11.60;10.70;;;;;;;25.27;50.88;93234.53;5002074;28;20182;-71
2022/06/27 08:30:48;;;;;;;10.57;9.77;;;;;;;24.36;51.94;93227.28;5002859;28;20226;-74
2022/06/27 08:33:14;;;;;;;11.43;10.00;;;;;;;24.85;51.70;93228.38;5003909;28;20178;-72
2022/06/27 08:35:40;;;;;;;10.55;9.52;;;;;;;24.99;50.67;93233.22;5000980;28;20230;-73
2022/06/27 08:38:06;;;;;;;11.88;10.88;;;;;;;24.66;53.58;93233.69;5001709;28;20254;-73
2022/06/27 08:40:32;;;;;;;13.13;10.68;;;;;;;24.97;50.30;93219.41;5001361;28;20242;-72
2022/06/27 08:42:58;;;;;;;11.65;10.65;;;;;;;24.80;50.15;93207.28;5001670;28;20186;-71
2022/06/27 08:45:25;;;;;;;11.95;10.98;;;;;;;23.72;54.50;93217.00;4999829;28;20234;-72
2022/06/27 08:47:54;;;;;;;11.75;10.68;;;;;;;23.92;54.70;93217.88;4998196;28;20199;-71
2022/06/27 08:50:20;;;;;;;11.60;10.82;;;;;;;24.07;53.04;93218.97;5000665;28;20195;-71
2022/06/27 08:52:47;;;;;;;10.95;10.15;;;;;;;24.26;51.62;93225.16;5000509;28;20202;-72
2022/06/27 08:55:12;;;;;;;9.88;9.18;;;;;;;24.37;49.71;93222.72;5000292;28;20205;-72
2022/06/27 08:57:41;;;;;;;10.88;10.20;;;;;;;25.22;49.42;93231.34;5001942;28;20249;-72
2022/06/27 09:00:09;;;;;;;11.98;10.95;;;;;;;24.94;52.10;93234.28;4999697;28;20321;-73
2022/06/27 09:02:42;;;;;;;10.25;9.55;;;;;;;25.18;49.31;93235.88;5003062;28;20224;-70
2022/06/27 09:05:15;;;;;;;12.02;11.10;;;;;;;25.18;46.53;93209.16;5001087;28;20218;-72
2022/06/27 09:07:48;;;;;;;9.32;8.55;;;;;;;25.79;47.44;93233.19;5000818;28;20235;-70
2022/06/27 09:10:26;;;;;;;10.15;9.35;;;;;;;25.72;46.99;93227.69;5001218;28;20207;-72
2022/06/27 09:13:00;;;;;;;10.20;9.50;;;;;;;25.56;46.08;93232.41;5000922;28;20215;-68
2022/06/27 09:15:49;;;;;;;10.10;9.40;;;;;;;24.98;47.49;93232.44;5002376;28;20218;-72
2022/06/27 09:18:17;;;;;;;10.48;9.77;;;;;;;24.83;49.95;93221.81;4983345;28;20203;-71
2022/06/27 09:20:51;;;;;;;9.57;8.93;;;;;;;25.23;49.14;93232.94;5001087;28;20234;-70
2022/06/27 09:23:35;;;;;;;10.30;9.60;;;;;;;24.98;48.64;93229.00;5003083;28;20206;-72
2022/06/27 09:26:20;;;;;;;11.95;10.98;;;;;;;25.50;47.38;93226.56;5002634;28;20328;-72
2022/06/27 09:28:45;;;;;;;11.60;10.60;;;;;;;25.26;46.80;93216.94;5000933;28;20222;-76
2022/06/27 09:31:32;;;;;;;10.55;9.85;;;;;;;25.41;49.14;93226.03;5000022;28;20238;-73
2022/06/27 09:34:14;;;;;;;12.52;11.43;;;;;;;25.51;48.80;93225.41;5002024;28;20195;-72
2022/06/27 09:36:46;;;;;;;10.43;9.73;;;;;;;25.24;50.93;93223.78;4999063;28;20229;-72
2022/06/27 09:39:17;;;;;;;10.57;9.68;;;;;;;25.25;47.81;93217.28;5002475;28;20196;-72
2022/06/27 09:41:46;;;;;;;10.23;9.43;;;;;;;26.00;47.66;93218.25;5000507;28;20238;-70
2022/06/27 09:44:16;;;;;;;9.70;9.02;;;;;;;25.48;48.18;93202.06;4999926;28;20210;-70
2022/06/27 09:46:50;;;;;;;10.52;9.73;;;;;;;25.59;48.52;93211.03;4999780;28;20250;-70
2022/06/27 09:49:15;;;;;;;10.45;9.77;;;;;;;24.99;49.26;93203.81;4998725;28;21021;-72
2022/06/27 09:51:42;;;;;;;9.82;9.10;;;;;;;25.42;50.96;93213.44;4998606;28;20227;-69
2022/06/27 09:54:10;;;;;;;11.32;10.38;;;;;;;25.70;49.26;93225.38;5000660;28;20199;-72
2022/06/27 09:56:39;;;;;;;9.38;8.80;;;;;;;25.79;49.32;93223.22;4999205;28;20249;-69
2022/06/27 09:59:07;;;;;;;10.10;9.23;;;;;;;25.00;47.40;93214.16;4999874;28;20199;-71
2022/06/27 10:01:33;;;;;;;10.73;9.93;;;;;;;25.25;49.10;93214.63;5001330;28;20239;-71
2022/06/27 10:04:00;;;;;;;10.95;9.93;;;;;;;25.47;48.96;93221.91;4998869;28;20188;-71
2022/06/27 10:06:26;;;;;;;11.85;10.95;;;;;;;26.16;46.90;93218.91;5001003;28;20243;-70
2022/06/27 10:08:52;;;;;;;11.75;10.68;;;;;;;26.66;46.36;93213.09;4999940;28;20243;-70
2022/06/27 10:11:18;;;;;;;10.68;9.60;;;;;;;26.61;44.53;93210.75;4998464;28;20257;-70
2022/06/27 10:14:19;;;;;;;9.95;9.25;;;;;;;27.08;45.01;93212.09;5001138;28;20191;-71
2022/06/27 10:16:58;;;;;;;9.60;9.02;;;;;;;26.65;46.17;93192.81;5000409;28;20257;-71
2022/06/27 10:19:29;;;;;;;10.05;9.20;;;;;;;26.62;44.27;93196.19;5001435;28;20199;-71
2022/06/27 10:21:56;;;;;;;11.98;10.98;;;;;;;26.56;44.35;93202.22;5003384;28;20254;-69
2022/06/27 10:24:24;;;;;;;10.63;9.88;;;;;;;26.43;45.45;93207.03;5002536;28;20252;-70
2022/06/27 10:26:55;;;;;;;10.07;9.18;;;;;;;26.39;46.54;93208.91;5000853;28;20246;-72
2022/06/27 10:29:26;;;;;;;10.38;9.48;;;;;;;26.22;47.05;93206.75;5003684;28;20201;-72
2022/06/27 10:31:52;;;;;;;10.25;9.55;;;;;;;25.94;44.55;93189.44;5002624;28;20231;-71
2022/06/27 10:34:17;;;;;;;10.10;9.40;;;;;;;25.46;48.76;93200.88;5002653;28;20207;-72
2022/06/27 10:36:43;;;;;;;10.30;9.57;;;;;;;25.47;46.14;93205.09;5001654;28;20253;-72
2022/06/27 10:39:20;;;;;;;9.88;9.27;;;;;;;25.56;47.24;93195.72;5005716;28;20218;-71
2022/06/27 10:41:46;;;;;;;9.45;8.88;;;;;;;25.77;46.10;93182.69;5000324;28;20227;-71
2022/06/27 10:44:30;;;;;;;10.05;9.25;;;;;;;26.29;47.29;93188.09;5005971;28;20222;-70
2022/06/27 10:46:55;;;;;;;10.30;9.60;;;;;;;26.47;44.99;93194.47;5001750;28;20216;-72
2022/06/27 10:49:22;;;;;;;9.52;8.93;;;;;;;26.28;48.40;93188.47;5003412;28;21159;-72
2022/06/27 10:51:48;;;;;;;10.02;9.38;;;;;;;25.83;48.18;93188.50;5000836;28;20227;-70
2022/06/27 10:54:14;;;;;;;10.00;9.32;;;;;;;25.81;47.76;93188.88;5005921;28;20196;-71
2022/06/27 10:56:51;;;;;;;9.32;8.82;;;;;;;25.42;47.82;93192.78;5002178;28;20283;-71
2022/06/27 10:59:16;;;;;;;9.57;8.98;;;;;;;25.37;46.59;93189.66;5002360;28;20196;-71
2022/06/27 11:01:51;;;;;;;9.55;8.75;;;;;;;25.66;46.28;93199.69;5002257;28;20242;-71
2022/06/27 11:04:34;;;;;;;9.88;9.18;;;;;;;25.54;48.25;93189.19;5002877;28;20302;-72
2022/06/27 11:07:09;;;;;;;13.63;10.32;;;;;;;25.93;47.44;93186.00;5003923;28;20298;-71
2022/06/27 11:09:35;;;;;;;9.50;8.80;;;;;;;25.85;46.29;93176.34;5001202;28;20480;-72
2022/06/27 11:12:03;;;;;;;11.23;10.23;;;;;;;25.73;45.67;93184.53;5002881;28;20250;-72
2022/06/27 11:14:29;;;;;;;11.80;10.75;;;;;;;25.49;46.68;93144.78;5004190;28;20191;-73
2022/06/27 11:16:54;;;;;;;11.73;10.80;;;;;;;25.70;46.65;93187.16;4989760;28;20219;-72
2022/06/27 11:22:20;;;;;;;9.38;8.77;;;;;;;25.68;47.06;93168.03;5003653;28;21761;-74
2022/06/27 11:24:48;;;;;;;9.55;8.90;;;;;;;25.81;46.54;93167.47;5003214;28;20199;-72
2022/06/27 11:27:15;;;;;;;9.27;8.68;;;;;;;26.44;44.40;93173.00;5003447;28;20219;-72
2022/06/27 11:32:27;;;;;;;9.65;9.05;;;;;;;26.56;44.26;93165.50;5003277;28;21182;-72